Time,TemperatureF,DewpointF,PressureIn,WindDirection,WindDirectionDegrees,WindSpeedMPH,WindSpeedGustMPH,Humidity,HourlyPrecipIn,Conditions,Clouds,dailyrainin,SolarRadiationWatts/m^2,SoftwareType,DateUTC
2013-07-18 00:02:00,77.0,73.0,29.99,WSW,250,0.0,-999.0,87,-99.99,,,-99.99,0.000000,,2013-07-18 04:02:00,
2013-07-18 00:32:00,77.0,73.0,29.97,WNW,296,1.0,-999.0,88,-99.99,,,-99.99,0.000000,,2013-07-18 04:32:00,
2013-07-18 00:43:00,77.0,73.0,29.97,WSW,247,1.0,-999.0,88,-99.99,,,-99.99,0.000000,,2013-07-18 04:43:00,
2013-07-18 00:52:00,77.0,73.0,29.97,West,272,1.0,-999.0,87,-99.99,,,-99.99,0.000000,,2013-07-18 04:52:00,
2013-07-18 01:02:00,77.0,73.0,29.97,West,272,1.0,-999.0,87,-99.99,,,-99.99,0.000000,,2013-07-18 05:02:00,
2013-07-18 01:11:00,77.0,73.0,29.97,West,272,1.0,-999.0,87,-99.99,,,-99.99,0.000000,,2013-07-18 05:11:00,
2013-07-18 01:22:00,77.0,73.0,29.98,West,272,0.0,-999.0,87,-99.99,,,-99.99,0.000000,,2013-07-18 05:22:00,
2013-07-18 01:52:00,77.0,72.0,29.98,West,272,0.0,-999.0,86,-99.99,,,-99.99,0.000000,,2013-07-18 05:52:00,
2013-07-18 02:01:00,77.0,73.0,29.98,West,272,0.0,-999.0,87,-99.99,,,-99.99,0.000000,,2013-07-18 06:01:00,
2013-07-18 02:12:00,77.0,72.0,29.98,NW,322,0.0,-999.0,86,-99.99,,,-99.99,0.000000,,2013-07-18 06:12:00,
2013-07-18 02:22:00,77.0,72.0,29.97,NW,322,0.0,-999.0,86,-99.99,,,-99.99,0.000000,,2013-07-18 06:22:00,
2013-07-18 02:32:00,77.0,72.0,29.97,NW,322,0.0,-999.0,86,-99.99,,,-99.99,0.000000,,2013-07-18 06:32:00,
2013-07-18 02:43:00,77.0,72.0,29.97,NW,322,0.0,-999.0,86,-99.99,,,-99.99,0.000000,,2013-07-18 06:43:00,
2013-07-18 02:52:00,77.0,72.0,29.96,NW,322,0.0,-999.0,86,-99.99,,,-99.99,0.000000,,2013-07-18 06:52:00,
2013-07-18 03:12:00,77.0,72.0,29.96,WSW,245,0.0,-999.0,86,-99.99,,,-99.99,0.000000,,2013-07-18 07:12:00,
2013-07-18 03:32:00,76.0,72.0,29.94,WSW,245,0.0,-999.0,87,-99.99,,,-99.99,0.000000,,2013-07-18 07:32:00,
2013-07-18 03:42:00,76.0,72.0,29.94,WSW,245,0.0,-999.0,86,-99.99,,,-99.99,0.000000,,2013-07-18 07:42:00,
2013-07-18 03:52:00,76.0,72.0,29.94,WSW,245,0.0,-999.0,86,-99.99,,,-99.99,0.000000,,2013-07-18 07:52:00,
2013-07-18 04:01:00,76.0,72.0,29.94,WSW,245,0.0,-999.0,86,-99.99,,,-99.99,0.000000,,2013-07-18 08:01:00,
2013-07-18 04:11:00,76.0,72.0,29.94,WSW,245,0.0,-999.0,86,-99.99,,,-99.99,0.000000,,2013-07-18 08:11:00,
2013-07-18 04:21:00,76.0,72.0,29.94,WSW,245,0.0,-999.0,86,-99.99,,,-99.99,0.000000,,2013-07-18 08:21:00,
2013-07-18 04:32:00,76.0,72.0,29.94,WSW,245,0.0,-999.0,86,-99.99,,,-99.99,0.000000,,2013-07-18 08:32:00,
2013-07-18 04:51:00,76.0,72.0,29.94,WSW,245,0.0,-999.0,86,-99.99,,,-99.99,0.000000,,2013-07-18 08:51:00,
2013-07-18 05:21:00,76.0,72.0,29.94,WSW,245,0.0,-999.0,86,-99.99,,,-99.99,0.000000,,2013-07-18 09:21:00,
2013-07-18 05:42:00,76.0,72.0,29.95,WSW,245,0.0,-999.0,86,-99.99,,,-99.99,0.000000,,2013-07-18 09:42:00,
2013-07-18 05:51:00,76.0,72.0,29.95,WSW,245,0.0,-999.0,86,-99.99,,,-99.99,5.000000,,2013-07-18 09:51:00,
2013-07-18 06:01:00,76.0,72.0,29.96,WSW,245,0.0,-999.0,86,-99.99,,,-99.99,11.000000,,2013-07-18 10:01:00,
2013-07-18 06:11:00,76.0,72.0,29.96,WSW,245,0.0,-999.0,86,-99.99,,,-99.99,14.000000,,2013-07-18 10:11:00,
2013-07-18 06:32:00,76.0,72.0,29.96,North,2,0.0,-999.0,87,-99.99,,,-99.99,25.000000,,2013-07-18 10:32:00,
2013-07-18 06:52:00,77.0,73.0,29.96,SW,224,0.0,-999.0,87,-99.99,,,-99.99,32.000000,,2013-07-18 10:52:00,
2013-07-18 07:52:00,78.0,73.0,29.98,North,353,0.0,-999.0,85,-99.99,,,-99.99,53.000000,,2013-07-18 11:52:00,
2013-07-18 08:02:00,79.0,74.0,29.98,NNE,32,0.0,-999.0,85,-99.99,,,-99.99,56.000000,,2013-07-18 12:02:00,
2013-07-18 08:11:00,79.0,74.0,29.98,NNW,340,0.0,-999.0,85,-99.99,,,-99.99,62.000000,,2013-07-18 12:11:00,
2013-07-18 08:32:00,80.0,74.0,29.98,NW,311,0.0,-999.0,83,-99.99,,,-99.99,276.000000,,2013-07-18 12:32:00,
2013-07-18 08:52:00,81.0,75.0,29.98,ENE,60,0.0,-999.0,81,-99.99,,,-99.99,425.000000,,2013-07-18 12:52:00,
2013-07-18 09:43:00,85.0,75.0,29.98,NNE,25,0.0,-999.0,71,-99.99,,,-99.99,585.000000,,2013-07-18 13:43:00,
2013-07-18 10:02:00,85.0,75.0,29.98,North,359,0.0,-999.0,71,-99.99,,,-99.99,643.000000,,2013-07-18 14:02:00,
2013-07-18 10:12:00,86.0,74.0,29.98,NNW,348,0.0,-999.0,68,-99.99,,,-99.99,649.000000,,2013-07-18 14:12:00,
2013-07-18 10:43:00,88.0,75.0,29.98,NNE,26,0.0,-999.0,65,-99.99,,,-99.99,719.000000,,2013-07-18 14:43:00,
2013-07-18 11:01:00,87.0,73.0,29.98,ESE,108,0.0,-999.0,64,-99.99,,,-99.99,768.000000,,2013-07-18 15:01:00,
2013-07-18 11:43:00,89.0,73.0,29.98,North,9,0.0,-999.0,59,-99.99,,,-99.99,831.000000,,2013-07-18 15:43:00,
2013-07-18 11:53:00,89.0,73.0,29.98,WSW,242,0.0,-999.0,60,-99.99,,,-99.99,830.000000,,2013-07-18 15:53:00,
2013-07-18 12:32:00,89.0,72.0,29.98,WNW,283,1.0,-999.0,57,-99.99,,,-99.99,923.000000,,2013-07-18 16:32:00,
2013-07-18 13:02:00,90.0,73.0,29.97,West,281,0.0,-999.0,57,-99.99,,,-99.99,974.000000,,2013-07-18 17:02:00,
2013-07-18 13:11:00,91.0,74.0,29.97,NNE,32,0.0,-999.0,57,-99.99,,,-99.99,900.000000,,2013-07-18 17:11:00,
2013-07-18 13:43:00,87.0,74.0,29.98,NNE,32,0.0,-999.0,65,-99.99,,,-99.99,888.000000,,2013-07-18 17:43:00,
2013-07-18 13:52:00,89.0,76.0,29.97,NNE,32,0.0,-999.0,65,-99.99,,,-99.99,954.000000,,2013-07-18 17:52:00,
2013-07-18 15:11:00,91.0,74.0,29.95,WNW,296,0.0,-999.0,58,-99.99,,,-99.99,673.000000,,2013-07-18 19:11:00,
2013-07-18 15:43:00,90.0,75.0,29.94,SE,124,0.0,-999.0,62,-99.99,,,-99.99,726.000000,,2013-07-18 19:43:00,
2013-07-18 16:22:00,90.0,74.0,29.93,SW,224,0.0,-999.0,59,-99.99,,,-99.99,257.000000,,2013-07-18 20:22:00,
2013-07-18 16:32:00,87.0,74.0,29.92,West,274,0.0,-999.0,66,-99.99,,,-99.99,248.000000,,2013-07-18 20:32:00,
2013-07-18 16:43:00,87.0,75.0,29.92,SE,136,0.0,-999.0,67,-99.99,,,-99.99,645.000000,,2013-07-18 20:43:00,
2013-07-18 16:52:00,87.0,75.0,29.92,SSW,201,0.0,-999.0,68,-99.99,,,-99.99,142.000000,,2013-07-18 20:52:00,
2013-07-18 17:11:00,87.0,76.0,29.92,West,279,0.0,-999.0,69,-99.99,,,-99.99,582.000000,,2013-07-18 21:11:00,
2013-07-18 17:43:00,86.0,76.0,29.93,West,279,0.0,-999.0,73,-99.99,,,-99.99,90.000000,,2013-07-18 21:43:00,
2013-07-18 18:01:00,85.0,77.0,29.92,West,279,0.0,-999.0,76,-99.99,,,-99.99,84.000000,,2013-07-18 22:01:00,
2013-07-18 18:11:00,85.0,76.0,29.92,West,279,0.0,-999.0,74,-99.99,,,-99.99,148.000000,,2013-07-18 22:11:00,
2013-07-18 18:22:00,84.0,76.0,29.92,West,279,0.0,-999.0,76,-99.99,,,-99.99,91.000000,,2013-07-18 22:22:00,
2013-07-18 18:32:00,85.0,75.0,29.91,West,279,0.0,-999.0,73,-99.99,,,-99.99,127.000000,,2013-07-18 22:32:00,
2013-07-18 18:43:00,85.0,76.0,29.91,ENE,72,0.0,-999.0,74,-99.99,,,-99.99,91.000000,,2013-07-18 22:43:00,
2013-07-18 19:02:00,85.0,77.0,29.92,ENE,72,0.0,-999.0,77,-99.99,,,-99.99,69.000000,,2013-07-18 23:02:00,
2013-07-18 19:11:00,83.0,75.0,29.92,ENE,72,0.0,-999.0,77,-99.99,,,-99.99,77.000000,,2013-07-18 23:11:00,
2013-07-18 19:22:00,83.0,75.0,29.92,ENE,72,0.0,-999.0,77,-99.99,,,-99.99,125.000000,,2013-07-18 23:22:00,
2013-07-18 20:22:00,82.0,76.0,29.93,ENE,72,0.0,-999.0,81,-99.99,,,-99.99,9.000000,,2013-07-19 00:22:00,
2013-07-18 20:32:00,82.0,75.0,29.93,SW,223,0.0,-999.0,80,-99.99,,,-99.99,0.000000,,2013-07-19 00:32:00,
2013-07-18 20:43:00,82.0,75.0,29.93,West,271,0.0,-999.0,79,-99.99,,,-99.99,0.000000,,2013-07-19 00:43:00,
2013-07-18 21:01:00,81.0,75.0,29.93,West,262,0.0,-999.0,81,-99.99,,,-99.99,0.000000,,2013-07-19 01:01:00,
2013-07-18 21:11:00,81.0,75.0,29.93,West,262,0.0,-999.0,81,-99.99,,,-99.99,0.000000,,2013-07-19 01:11:00,
2013-07-18 21:42:00,80.0,74.0,29.93,South,177,0.0,-999.0,83,-99.99,,,-99.99,0.000000,,2013-07-19 01:42:00,
2013-07-18 21:52:00,80.0,74.0,29.94,South,177,0.0,-999.0,83,-99.99,,,-99.99,0.000000,,2013-07-19 01:52:00,
2013-07-18 22:22:00,79.0,74.0,29.94,South,177,0.0,-999.0,85,-99.99,,,-99.99,0.000000,,2013-07-19 02:22:00,
2013-07-18 22:42:00,79.0,75.0,29.94,South,177,0.0,-999.0,87,-99.99,,,-99.99,0.000000,,2013-07-19 02:42:00,